Terminal Aerodrome Forecast
Issued by NWS

Home | Current Version | Previous Version | Text Only | Print | Product List | Glossary On
Versions: 1 2 3 4 5 6 7 8 9 10 11 12 13 14 15 16
000
FTUS44 KMAF 022122 AAB
TAFCNM
TAF AMD
KCNM 022122Z 0221/0318 36011KT P6SM OVC018
     FM030300 04011KT P6SM OVC012
     FM030900 04011KT 4SM -DZRA OVC006=

USA.gov is the U.S. government's official web portal to all federal, state and local government web resources and services.